createdAt,value
2023-05-18T00:00:36.239Z,2.47
2023-05-18T00:03:07.901Z,3.70
2023-05-18T00:05:34.817Z,2.75
2023-05-18T00:08:04.606Z,2.53
2023-05-18T00:10:32.594Z,4.88
2023-05-18T00:12:59.197Z,3.95
2023-05-18T00:15:25.826Z,2.45
2023-05-18T00:17:53.477Z,2.97
2023-05-18T00:20:22.140Z,2.67
2023-05-18T00:22:50.713Z,3.92
2023-05-18T00:25:20.639Z,2.30
2023-05-18T00:27:53.308Z,3.38
2023-05-18T00:30:19.915Z,4.50
2023-05-18T00:32:47.742Z,2.17
2023-05-18T00:35:16.700Z,2.42
2023-05-18T00:37:49.438Z,2.25
2023-05-18T00:40:16.133Z,2.08
2023-05-18T00:42:42.765Z,4.05
2023-05-18T00:45:12.486Z,3.25
2023-05-18T00:47:39.064Z,2.95
2023-05-18T00:50:06.092Z,3.45
2023-05-18T00:52:36.230Z,2.50
2023-05-18T00:55:03.302Z,2.28
2023-05-18T00:57:34.752Z,3.25
2023-05-18T01:00:05.172Z,2.25
2023-05-18T01:02:32.161Z,3.35
2023-05-18T01:05:11.173Z,4.15
2023-05-18T01:07:42.652Z,3.58
2023-05-18T01:10:11.108Z,2.00
2023-05-18T01:12:50.774Z,3.15
2023-05-18T01:15:24.985Z,2.28
2023-05-18T01:18:05.369Z,1.80
2023-05-18T01:20:39.077Z,2.55
2023-05-18T01:23:30.582Z,2.85
2023-05-18T01:25:59.379Z,2.33
2023-05-18T01:28:32.568Z,1.85
2023-05-18T01:31:07.054Z,4.15
2023-05-18T01:33:33.753Z,2.22
2023-05-18T01:36:00.479Z,4.75
2023-05-18T01:38:28.155Z,2.33
2023-05-18T01:41:19.497Z,2.83
2023-05-18T01:43:54.232Z,2.50
2023-05-18T01:47:00.826Z,3.53
2023-05-18T01:49:33.379Z,3.40
2023-05-18T01:52:06.438Z,4.40
2023-05-18T01:54:33.890Z,2.28
2023-05-18T01:57:01.339Z,3.30
2023-05-18T01:59:28.231Z,3.53
2023-05-18T02:01:59.930Z,2.58
2023-05-18T02:04:27.723Z,2.97
2023-05-18T02:06:55.303Z,3.03
2023-05-18T02:09:23.130Z,2.47
2023-05-18T02:11:49.830Z,2.97
2023-05-18T02:14:16.502Z,2.28
2023-05-18T02:16:47.163Z,2.15
2023-05-18T02:19:14.934Z,3.70
2023-05-18T02:21:43.580Z,3.10
2023-05-18T02:24:10.298Z,3.08
2023-05-18T02:26:37.770Z,2.28
2023-05-18T02:29:09.426Z,3.10
2023-05-18T02:31:36.124Z,3.35
2023-05-18T02:34:02.883Z,2.15
2023-05-18T02:36:37.789Z,5.93
2023-05-18T02:39:04.945Z,3.95
2023-05-18T02:41:33.941Z,2.45
2023-05-18T02:44:02.172Z,4.72
2023-05-18T02:46:28.938Z,3.97
2023-05-18T02:48:56.491Z,3.15
2023-05-18T02:51:23.376Z,3.28
2023-05-18T02:53:51.211Z,2.58
2023-05-18T02:56:18.655Z,3.15
2023-05-18T02:58:45.260Z,2.85
2023-05-18T03:01:17.038Z,3.30
2023-05-18T03:03:43.722Z,1.70
2023-05-18T03:06:10.869Z,3.13
2023-05-18T03:08:37.543Z,5.28
2023-05-18T03:11:04.416Z,1.98
2023-05-18T03:13:31.821Z,3.60
2023-05-18T03:15:58.632Z,3.13
2023-05-18T03:18:25.715Z,3.45
2023-05-18T03:20:52.770Z,2.70
2023-05-18T03:23:20.246Z,5.10
2023-05-18T03:25:49.883Z,2.53
2023-05-18T03:28:16.485Z,2.97
2023-05-18T03:30:43.057Z,4.53
2023-05-18T03:33:09.667Z,2.72
2023-05-18T03:35:36.348Z,3.92
2023-05-18T03:38:03.004Z,2.85
2023-05-18T03:40:29.716Z,3.55
2023-05-18T03:42:57.894Z,5.38
2023-05-18T03:45:26.922Z,3.42
2023-05-18T03:47:53.590Z,1.70
2023-05-18T03:50:20.236Z,3.17
2023-05-18T03:52:46.801Z,2.92
2023-05-18T03:55:13.604Z,4.82
2023-05-18T03:57:40.405Z,4.43
2023-05-18T04:00:12.104Z,2.35
2023-05-18T04:02:39.505Z,2.22
2023-05-18T04:05:07.432Z,3.67
2023-05-18T04:07:34.165Z,2.25
2023-05-18T04:10:00.924Z,3.90
2023-05-18T04:12:27.525Z,2.65
2023-05-18T04:14:54.478Z,2.83
2023-05-18T04:17:24.003Z,4.65
2023-05-18T04:19:50.699Z,2.80
2023-05-18T04:22:17.548Z,1.70
2023-05-18T04:24:47.394Z,1.98
2023-05-18T04:27:15.218Z,3.55
2023-05-18T04:29:49.175Z,3.42
2023-05-18T04:32:18.498Z,2.47
2023-05-18T04:34:49.553Z,2.95
2023-05-18T04:37:18.001Z,2.85
2023-05-18T04:39:44.604Z,2.05
2023-05-18T04:42:14.106Z,3.80
2023-05-18T04:44:40.766Z,3.45
2023-05-18T04:47:08.543Z,2.40
2023-05-18T04:49:35.283Z,3.70
2023-05-18T04:52:01.972Z,3.10
2023-05-18T04:54:32.333Z,1.73
2023-05-18T04:56:59.616Z,1.92
2023-05-18T04:59:26.337Z,3.60
2023-05-18T05:01:53.604Z,2.38
2023-05-18T05:04:21.611Z,3.33
2023-05-18T05:06:48.221Z,3.20
2023-05-18T05:09:15.039Z,3.17
2023-05-18T05:11:43.222Z,1.83
2023-05-18T05:14:12.926Z,4.35
2023-05-18T05:16:39.831Z,2.40
2023-05-18T05:19:06.816Z,2.30
2023-05-18T05:21:34.603Z,2.20
2023-05-18T05:24:07.378Z,3.55
2023-05-18T05:26:34.168Z,3.08
2023-05-18T05:29:00.847Z,2.30
2023-05-18T05:31:27.564Z,1.48
2023-05-18T05:33:54.176Z,1.33
2023-05-18T05:36:20.843Z,4.30
2023-05-18T05:38:50.504Z,2.33
2023-05-18T05:41:18.141Z,7.38
2023-05-18T05:43:52.800Z,3.28
2023-05-18T05:46:22.462Z,4.10
2023-05-18T05:48:51.729Z,3.17
2023-05-18T05:51:18.327Z,7.38
2023-05-18T05:53:47.500Z,5.30
2023-05-18T05:56:16.743Z,4.32
2023-05-18T05:58:44.196Z,3.83
2023-05-18T06:01:12.825Z,2.95
2023-05-18T06:03:39.548Z,3.00
2023-05-18T06:06:09.458Z,4.68
2023-05-18T06:08:36.150Z,3.17
2023-05-18T06:11:02.746Z,4.80
2023-05-18T06:13:29.460Z,4.05
2023-05-18T06:15:56.287Z,7.25
2023-05-18T06:18:22.974Z,3.00
2023-05-18T06:20:49.608Z,5.00
2023-05-18T06:23:16.388Z,5.75
2023-05-18T06:25:43.047Z,2.78
2023-05-18T06:28:10.525Z,5.63
2023-05-18T06:30:38.549Z,4.13
2023-05-18T06:33:05.431Z,3.42
2023-05-18T06:35:33.103Z,4.30
2023-05-18T06:37:59.897Z,6.00
2023-05-18T06:40:26.626Z,2.50
2023-05-18T06:42:53.240Z,4.57
2023-05-18T06:45:19.886Z,3.95
2023-05-18T06:47:46.623Z,3.85
2023-05-18T06:50:13.206Z,4.35
2023-05-18T06:52:40.266Z,2.97
2023-05-18T06:55:07.675Z,3.50
2023-05-18T06:57:34.293Z,3.88
2023-05-18T07:00:01.129Z,2.75
2023-05-18T07:02:28.592Z,2.83
2023-05-18T07:04:55.206Z,3.83
2023-05-18T07:07:22.109Z,5.90
2023-05-18T07:09:49.923Z,4.20
2023-05-18T07:12:16.551Z,3.85
2023-05-18T07:14:43.312Z,5.10
2023-05-18T07:17:09.897Z,3.55
2023-05-18T07:19:36.599Z,5.47
2023-05-18T07:22:04.639Z,6.15
2023-05-18T07:24:31.441Z,5.70
2023-05-18T07:27:00.051Z,8.43
2023-05-18T07:29:27.468Z,8.65
2023-05-18T07:31:54.136Z,8.18
2023-05-18T07:34:20.888Z,5.72
2023-05-18T07:36:47.492Z,5.40
2023-05-18T07:39:19.404Z,6.28
2023-05-18T07:41:47.389Z,7.70
2023-05-18T07:44:14.577Z,9.82
2023-05-18T07:46:41.511Z,6.07
2023-05-18T07:49:08.225Z,7.53
2023-05-18T07:51:34.803Z,5.68
2023-05-18T07:54:01.421Z,9.27
2023-05-18T07:56:28.062Z,7.13
2023-05-18T07:58:56.067Z,6.50
2023-05-18T08:01:27.306Z,4.55
2023-05-18T08:03:54.707Z,6.50
2023-05-18T08:06:21.458Z,4.68
2023-05-18T08:08:48.237Z,5.82
2023-05-18T08:11:14.813Z,4.82
2023-05-18T08:13:41.451Z,4.72
2023-05-18T08:16:12.194Z,7.93
2023-05-18T08:18:39.198Z,6.57
2023-05-18T08:21:08.245Z,6.78
2023-05-18T08:23:38.428Z,16.95
2023-05-18T08:26:05.184Z,8.75
2023-05-18T08:28:32.097Z,10.57
2023-05-18T08:30:58.720Z,8.55
2023-05-18T08:33:25.861Z,6.70
2023-05-18T08:35:52.710Z,6.82
2023-05-18T08:38:19.416Z,7.85
2023-05-18T08:41:08.745Z,10.05
2023-05-18T08:43:38.530Z,10.35
2023-05-18T08:46:10.612Z,5.78
2023-05-18T08:48:37.826Z,8.57
2023-05-18T08:51:06.735Z,6.63
2023-05-18T08:53:36.477Z,6.18
2023-05-18T08:56:03.657Z,7.40
2023-05-18T08:58:36.201Z,7.30
2023-05-18T09:01:03.990Z,6.67
2023-05-18T09:03:31.755Z,10.73
2023-05-18T09:05:59.583Z,6.68
2023-05-18T09:08:26.437Z,8.68
2023-05-18T09:10:54.313Z,6.90
2023-05-18T09:13:21.414Z,6.97
2023-05-18T09:15:51.620Z,7.55
2023-05-18T09:18:18.230Z,6.18
2023-05-18T09:20:45.501Z,7.13
2023-05-18T09:23:12.616Z,7.25
2023-05-18T09:25:44.439Z,7.97
2023-05-18T09:28:13.670Z,8.43
2023-05-18T09:30:41.847Z,7.68
2023-05-18T09:33:18.613Z,7.10
2023-05-18T09:35:48.602Z,6.50
2023-05-18T09:38:21.971Z,6.28
2023-05-18T09:40:51.866Z,8.60
2023-05-18T09:43:21.708Z,7.45
2023-05-18T09:45:49.760Z,9.13
2023-05-18T09:48:16.931Z,8.32
2023-05-18T09:50:46.453Z,7.40
2023-05-18T09:53:14.048Z,7.00
2023-05-18T09:55:48.655Z,7.25
2023-05-18T09:58:15.969Z,7.47
2023-05-18T10:00:44.736Z,9.75
2023-05-18T10:03:27.237Z,7.65
2023-05-18T10:05:53.817Z,7.25
2023-05-18T10:08:20.399Z,8.43
2023-05-18T10:10:49.584Z,5.40
2023-05-18T10:13:20.899Z,6.35
2023-05-18T10:15:49.947Z,5.43
2023-05-18T10:18:27.285Z,6.68
2023-05-18T10:21:01.418Z,7.10
2023-05-18T10:23:31.421Z,6.22
2023-05-18T10:26:00.869Z,6.40
2023-05-18T10:28:31.582Z,7.22
2023-05-18T10:30:59.382Z,8.40
2023-05-18T10:33:31.202Z,7.72
2023-05-18T10:35:58.231Z,7.53
2023-05-18T10:38:27.444Z,7.00
2023-05-18T10:40:58.726Z,10.13
2023-05-18T10:43:29.208Z,7.57
2023-05-18T10:46:02.207Z,6.28
2023-05-18T10:48:29.836Z,6.03
2023-05-18T10:50:58.133Z,6.95
2023-05-18T10:53:29.459Z,6.88
2023-05-18T10:55:56.157Z,7.05
2023-05-18T10:58:25.268Z,6.43
2023-05-18T11:00:59.752Z,6.30
2023-05-18T11:03:27.296Z,7.00
2023-05-18T11:06:06.631Z,9.00
2023-05-18T11:08:33.544Z,7.00
2023-05-18T11:11:07.461Z,6.72
2023-05-18T11:13:35.543Z,6.50
2023-05-18T11:16:05.261Z,5.78
2023-05-18T11:18:36.664Z,4.88
2023-05-18T11:21:03.396Z,6.45
2023-05-18T11:23:33.235Z,6.20
2023-05-18T11:26:05.193Z,6.20
2023-05-18T11:28:35.791Z,5.90
2023-05-18T11:31:04.662Z,5.35
2023-05-18T11:33:31.489Z,7.03
2023-05-18T11:35:58.124Z,5.53
2023-05-18T11:38:46.325Z,5.32
2023-05-18T11:41:31.822Z,6.60
2023-05-18T11:44:16.983Z,5.85
2023-05-18T11:47:04.496Z,5.90
2023-05-18T11:49:45.735Z,6.32
2023-05-18T11:52:12.250Z,5.82
2023-05-18T11:54:47.176Z,5.70
2023-05-18T11:57:15.537Z,5.43
2023-05-18T11:59:49.416Z,5.90
2023-05-18T12:02:21.417Z,5.28
2023-05-18T12:04:50.756Z,5.28
2023-05-18T12:07:23.445Z,5.43
2023-05-18T12:09:50.101Z,6.05
2023-05-18T12:12:20.145Z,5.38
2023-05-18T12:14:54.035Z,5.32
2023-05-18T12:17:27.947Z,3.97
2023-05-18T12:19:54.589Z,5.22
2023-05-18T12:22:21.342Z,6.43
2023-05-18T12:24:51.535Z,4.38
2023-05-18T12:27:21.384Z,5.03
2023-05-18T12:29:48.014Z,5.03
2023-05-18T12:32:14.705Z,5.90
2023-05-18T12:34:44.371Z,4.18
2023-05-18T12:37:11.001Z,4.90
2023-05-18T12:39:40.678Z,3.67
2023-05-18T12:42:11.384Z,3.83
2023-05-18T12:44:38.640Z,4.93
2023-05-18T12:47:05.563Z,4.63
2023-05-18T12:49:39.822Z,5.57
2023-05-18T12:52:15.655Z,5.47
2023-05-18T12:54:58.386Z,6.80
2023-05-18T12:57:27.877Z,4.53
2023-05-18T12:59:57.549Z,3.90
2023-05-18T13:02:39.989Z,6.38
2023-05-18T13:05:08.696Z,4.80
2023-05-18T13:07:36.878Z,5.32
2023-05-18T13:10:16.877Z,4.57
2023-05-18T13:12:44.621Z,5.65
2023-05-18T13:15:21.642Z,5.78
2023-05-18T13:18:02.707Z,4.70
2023-05-18T13:20:51.555Z,5.72
2023-05-18T13:23:24.356Z,3.42
2023-05-18T13:25:55.524Z,4.65
2023-05-18T13:28:24.037Z,4.65
2023-05-18T13:30:50.708Z,3.92
2023-05-18T13:33:19.361Z,3.78
2023-05-18T13:35:53.268Z,3.42
2023-05-18T13:38:20.254Z,5.80
2023-05-18T13:40:50.652Z,3.72
2023-05-18T13:43:26.541Z,3.05
2023-05-18T13:45:56.260Z,6.68
2023-05-18T13:48:23.027Z,4.25
2023-05-18T13:50:49.672Z,4.88
2023-05-18T13:53:16.490Z,4.03
2023-05-18T13:55:43.087Z,3.50
2023-05-18T13:58:12.836Z,6.05
2023-05-18T14:00:40.332Z,4.15
2023-05-18T14:03:07.079Z,5.80
2023-05-18T14:05:33.882Z,3.88
2023-05-18T14:08:01.514Z,5.13
2023-05-18T14:10:28.317Z,3.85
2023-05-18T14:12:55.034Z,5.10
2023-05-18T14:15:21.659Z,5.25
2023-05-18T14:17:49.153Z,4.55
2023-05-18T14:20:15.852Z,4.97
2023-05-18T14:22:42.436Z,5.95
2023-05-18T14:25:09.117Z,4.47
2023-05-18T14:27:35.717Z,3.33
2023-05-18T14:30:02.447Z,4.18
2023-05-18T14:32:29.106Z,4.40
2023-05-18T14:34:57.887Z,4.28
2023-05-18T14:37:26.640Z,3.55
2023-05-18T14:39:53.239Z,4.97
2023-05-18T14:42:19.895Z,5.30
2023-05-18T14:44:46.872Z,5.00
2023-05-18T14:47:13.502Z,4.53
2023-05-18T14:49:40.151Z,4.90
2023-05-18T14:52:07.711Z,6.00
2023-05-18T14:54:34.338Z,5.50
2023-05-18T14:57:01.388Z,5.63
2023-05-18T14:59:28.038Z,5.65
2023-05-18T15:01:54.667Z,5.68
2023-05-18T15:04:24.361Z,5.40
2023-05-18T15:06:51.036Z,6.00
2023-05-18T15:09:17.662Z,6.10
2023-05-18T15:11:44.313Z,5.93
2023-05-18T15:14:11.150Z,5.78
2023-05-18T15:16:39.540Z,5.05
2023-05-18T15:19:06.548Z,3.42
2023-05-18T15:21:33.175Z,3.47
2023-05-18T15:23:59.776Z,4.45
2023-05-18T15:26:26.955Z,4.65
2023-05-18T15:28:53.620Z,6.63
2023-05-18T15:31:20.661Z,4.28
2023-05-18T15:33:47.483Z,5.15
2023-05-18T15:36:14.168Z,4.88
2023-05-18T15:38:41.635Z,4.68
2023-05-18T15:41:08.245Z,4.15
2023-05-18T15:43:36.632Z,3.53
2023-05-18T15:46:03.338Z,3.58
2023-05-18T15:48:32.379Z,4.82
2023-05-18T15:50:58.978Z,4.32
2023-05-18T15:53:25.678Z,4.53
2023-05-18T15:55:56.653Z,5.00
2023-05-18T15:58:25.149Z,4.53
2023-05-18T16:00:54.274Z,4.40
2023-05-18T16:03:21.190Z,6.38
2023-05-18T16:05:47.916Z,5.38
2023-05-18T16:08:15.019Z,5.68
2023-05-18T16:10:41.759Z,5.18
2023-05-18T16:13:11.245Z,5.10
2023-05-18T16:15:37.858Z,3.67
2023-05-18T16:18:04.700Z,5.03
2023-05-18T16:20:31.603Z,4.65
2023-05-18T16:22:58.777Z,3.97
2023-05-18T16:25:30.627Z,4.43
2023-05-18T16:27:57.252Z,4.65
2023-05-18T16:30:23.832Z,5.97
2023-05-18T16:32:50.605Z,6.15
2023-05-18T16:35:17.262Z,3.58
2023-05-18T16:37:46.936Z,3.95
2023-05-18T16:40:14.072Z,4.75
2023-05-18T16:42:40.699Z,4.43
2023-05-18T16:45:07.526Z,5.60
2023-05-18T16:47:34.174Z,3.42
2023-05-18T16:50:01.836Z,5.32
2023-05-18T16:52:28.471Z,4.10
2023-05-18T16:54:55.094Z,3.92
2023-05-18T16:57:22.170Z,5.18
2023-05-18T16:59:49.073Z,3.08
2023-05-18T17:02:17.964Z,4.57
2023-05-18T17:04:49.664Z,3.22
2023-05-18T17:07:16.707Z,3.70
2023-05-18T17:09:43.392Z,3.17
2023-05-18T17:12:11.236Z,4.15
2023-05-18T17:14:41.404Z,5.90
2023-05-18T17:17:08.486Z,2.63
2023-05-18T17:19:35.534Z,6.30
2023-05-18T17:22:03.382Z,3.72
2023-05-18T17:24:30.312Z,5.50
2023-05-18T17:27:00.688Z,4.82
2023-05-18T17:29:28.075Z,2.92
2023-05-18T17:31:54.875Z,5.20
2023-05-18T17:34:21.960Z,4.97
2023-05-18T17:36:49.193Z,5.45
2023-05-18T17:39:19.977Z,5.03
2023-05-18T17:41:48.453Z,4.93
2023-05-18T17:44:16.500Z,3.55
2023-05-18T17:46:46.703Z,3.78
2023-05-18T17:49:14.209Z,4.80
2023-05-18T17:51:41.434Z,4.95
2023-05-18T17:54:09.350Z,3.60
2023-05-18T17:56:36.259Z,4.60
2023-05-18T17:59:03.308Z,4.65
2023-05-18T18:01:30.085Z,4.13
2023-05-18T18:03:57.238Z,3.80
2023-05-18T18:06:30.798Z,4.38
2023-05-18T18:08:58.626Z,4.95
2023-05-18T18:11:26.280Z,2.33
2023-05-18T18:13:52.982Z,5.63
2023-05-18T18:16:19.928Z,4.60
2023-05-18T18:18:46.892Z,5.68
2023-05-18T18:21:13.648Z,4.38
2023-05-18T18:23:40.721Z,5.38
2023-05-18T18:26:08.162Z,5.20
2023-05-18T18:28:35.103Z,5.25
2023-05-18T18:31:03.169Z,4.28
2023-05-18T18:33:29.838Z,5.53
2023-05-18T18:35:57.267Z,4.93
2023-05-18T18:38:26.979Z,5.55
2023-05-18T18:40:57.727Z,4.70
2023-05-18T18:43:24.310Z,4.13
2023-05-18T18:45:50.884Z,3.72
2023-05-18T18:48:21.083Z,4.00
2023-05-18T18:50:47.693Z,3.50
2023-05-18T18:53:14.278Z,4.85
2023-05-18T18:55:41.182Z,4.18
2023-05-18T18:58:09.756Z,3.47
2023-05-18T19:00:36.362Z,3.88
2023-05-18T19:03:02.972Z,5.53
2023-05-18T19:05:31.149Z,3.78
2023-05-18T19:07:57.997Z,3.90
2023-05-18T19:10:25.472Z,3.47
2023-05-18T19:12:52.053Z,5.03
2023-05-18T19:15:18.758Z,5.55
2023-05-18T19:17:52.095Z,4.68
2023-05-18T19:20:19.868Z,3.53
2023-05-18T19:22:46.466Z,3.67
2023-05-18T19:25:13.096Z,4.47
2023-05-18T19:27:39.709Z,4.72
2023-05-18T19:30:16.466Z,3.53
2023-05-18T19:32:43.188Z,3.83
2023-05-18T19:35:09.858Z,3.88
2023-05-18T19:37:38.789Z,3.58
2023-05-18T19:40:06.829Z,3.67
2023-05-18T19:42:33.482Z,4.78
2023-05-18T19:45:05.937Z,2.58
2023-05-18T19:47:32.681Z,3.28
2023-05-18T19:49:59.683Z,3.78
2023-05-18T19:52:26.459Z,3.08
2023-05-18T19:54:57.136Z,3.88
2023-05-18T19:57:23.839Z,4.40
2023-05-18T19:59:53.198Z,3.50
2023-05-18T20:02:19.878Z,3.00
2023-05-18T20:04:47.361Z,4.38
2023-05-18T20:07:17.083Z,4.22
2023-05-18T20:09:46.339Z,3.97
2023-05-18T20:12:12.939Z,3.45
2023-05-18T20:14:39.521Z,2.97
2023-05-18T20:17:06.414Z,4.38
2023-05-18T20:19:33.110Z,2.95
2023-05-18T20:21:59.908Z,2.88
2023-05-18T20:24:26.513Z,4.82
2023-05-18T20:26:54.120Z,4.25
2023-05-18T20:29:20.793Z,3.83
2023-05-18T20:31:47.492Z,3.17
2023-05-18T20:34:14.160Z,3.70
2023-05-18T20:36:40.827Z,2.90
2023-05-18T20:39:10.486Z,3.22
2023-05-18T20:41:40.134Z,4.18
2023-05-18T20:44:07.314Z,3.53
2023-05-18T20:46:34.048Z,3.33
2023-05-18T20:49:00.810Z,3.40
2023-05-18T20:51:28.868Z,3.67
2023-05-18T20:53:55.541Z,2.55
2023-05-18T20:56:23.330Z,3.78
2023-05-18T20:58:50.407Z,2.45
2023-05-18T21:01:18.518Z,3.13
2023-05-18T21:03:45.886Z,3.58
2023-05-18T21:06:15.885Z,3.20
2023-05-18T21:08:45.573Z,3.20
2023-05-18T21:11:12.201Z,2.20
2023-05-18T21:13:38.840Z,3.67
2023-05-18T21:16:08.314Z,2.45
2023-05-18T21:18:35.262Z,3.38
2023-05-18T21:21:02.312Z,2.65
2023-05-18T21:23:29.029Z,4.30
2023-05-18T21:25:56.539Z,3.67
2023-05-18T21:28:24.966Z,3.38
2023-05-18T21:30:52.308Z,3.47
2023-05-18T21:33:24.666Z,4.45
2023-05-18T21:35:51.417Z,2.30
2023-05-18T21:38:18.096Z,2.88
2023-05-18T21:40:44.685Z,2.58
2023-05-18T21:43:11.364Z,3.67
2023-05-18T21:45:38.638Z,3.20
2023-05-18T21:48:05.822Z,3.40
2023-05-18T21:50:34.901Z,3.25
2023-05-18T21:53:05.570Z,2.70
2023-05-18T21:55:32.665Z,3.58
2023-05-18T21:57:59.631Z,3.25
2023-05-18T22:00:27.037Z,6.45
2023-05-18T22:02:54.569Z,2.97
2023-05-18T22:05:21.284Z,2.53
2023-05-18T22:07:48.832Z,4.25
2023-05-18T22:10:15.488Z,3.90
2023-05-18T22:12:43.509Z,2.20
2023-05-18T22:15:12.484Z,3.20
2023-05-18T22:17:39.716Z,3.33
2023-05-18T22:20:11.179Z,3.60
2023-05-18T22:22:38.319Z,3.85
2023-05-18T22:25:05.147Z,2.25
2023-05-18T22:27:33.781Z,3.67
2023-05-18T22:30:00.501Z,1.92
2023-05-18T22:32:27.217Z,2.35
2023-05-18T22:34:55.761Z,3.08
2023-05-18T22:37:22.428Z,4.75
2023-05-18T22:39:49.005Z,3.63
2023-05-18T22:42:15.662Z,3.20
2023-05-18T22:44:42.265Z,6.10
2023-05-18T22:47:09.425Z,3.97
2023-05-18T22:49:36.091Z,2.75
2023-05-18T22:52:04.476Z,2.97
2023-05-18T22:54:31.438Z,3.28
2023-05-18T22:56:59.493Z,2.40
2023-05-18T22:59:29.247Z,3.67
2023-05-18T23:01:55.959Z,3.75
2023-05-18T23:04:22.662Z,4.25
2023-05-18T23:06:49.740Z,2.80
2023-05-18T23:09:17.074Z,2.65
2023-05-18T23:11:46.303Z,3.53
2023-05-18T23:14:13.008Z,2.03
2023-05-18T23:16:43.102Z,2.63
2023-05-18T23:19:20.138Z,2.97
2023-05-18T23:21:46.821Z,4.00
2023-05-18T23:24:15.366Z,3.22
2023-05-18T23:26:45.007Z,4.95
2023-05-18T23:29:11.591Z,3.13
2023-05-18T23:31:38.259Z,4.32
2023-05-18T23:34:07.904Z,4.15
2023-05-18T23:36:37.595Z,2.40
2023-05-18T23:39:07.271Z,1.73
2023-05-18T23:41:34.463Z,3.00
2023-05-18T23:44:08.757Z,3.67
2023-05-18T23:46:35.708Z,3.10
2023-05-18T23:49:02.545Z,2.13
2023-05-18T23:51:32.010Z,2.47
2023-05-18T23:54:03.641Z,2.35
2023-05-18T23:56:30.769Z,2.25
2023-05-18T23:58:57.865Z,3.67
